sensor_id;sensor_type;location;lat;lon;timestamp;temperature;humidity
13251;DHT22;6692;50.710;7.180;2023-12-22T00:01:37;6.80;99.90
13251;DHT22;6692;50.710;7.180;2023-12-22T00:03:38;6.80;99.90
13251;DHT22;6692;50.710;7.180;2023-12-22T00:05:39;6.80;99.90
13251;DHT22;6692;50.710;7.180;2023-12-22T00:07:40;6.80;99.90
13251;DHT22;6692;50.710;7.180;2023-12-22T00:09:42;6.90;99.90
13251;DHT22;6692;50.710;7.180;2023-12-22T00:11:43;6.80;99.90
13251;DHT22;6692;50.710;7.180;2023-12-22T00:13:44;6.90;99.90
13251;DHT22;6692;50.710;7.180;2023-12-22T00:15:45;6.90;99.90
13251;DHT22;6692;50.710;7.180;2023-12-22T00:17:47;6.80;99.90
13251;DHT22;6692;50.710;7.180;2023-12-22T00:19:47;6.90;99.90
13251;DHT22;6692;50.710;7.180;2023-12-22T00:21:48;6.90;99.90
13251;DHT22;6692;50.710;7.180;2023-12-22T00:23:49;6.80;99.90
13251;DHT22;6692;50.710;7.180;2023-12-22T00:25:50;6.10;99.90
13251;DHT22;6692;50.710;7.180;2023-12-22T00:27:51;6.10;99.90
13251;DHT22;6692;50.710;7.180;2023-12-22T00:29:52;5.90;99.90
13251;DHT22;6692;50.710;7.180;2023-12-22T00:31:53;5.60;99.90
13251;DHT22;6692;50.710;7.180;2023-12-22T00:33:54;5.60;99.90
13251;DHT22;6692;50.710;7.180;2023-12-22T00:35:55;5.50;99.90
13251;DHT22;6692;50.710;7.180;2023-12-22T00:37:56;5.40;99.90
13251;DHT22;6692;50.710;7.180;2023-12-22T00:39:57;5.40;99.90
13251;DHT22;6692;50.710;7.180;2023-12-22T00:41:58;5.30;99.90
13251;DHT22;6692;50.710;7.180;2023-12-22T00:43:59;5.30;99.90
13251;DHT22;6692;50.710;7.180;2023-12-22T00:46:00;5.40;99.90
13251;DHT22;6692;50.710;7.180;2023-12-22T00:48:00;5.40;99.90
13251;DHT22;6692;50.710;7.180;2023-12-22T00:50:01;5.40;99.90
13251;DHT22;6692;50.710;7.180;2023-12-22T00:52:03;5.40;99.90
13251;DHT22;6692;50.710;7.180;2023-12-22T00:54:04;5.40;99.90
13251;DHT22;6692;50.710;7.180;2023-12-22T00:56:05;5.40;99.90
13251;DHT22;6692;50.710;7.180;2023-12-22T00:58:06;5.50;99.90
13251;DHT22;6692;50.710;7.180;2023-12-22T01:00:08;5.50;99.90
13251;DHT22;6692;50.710;7.180;2023-12-22T01:02:10;5.50;99.90
13251;DHT22;6692;50.710;7.180;2023-12-22T01:04:10;5.60;99.90
13251;DHT22;6692;50.710;7.180;2023-12-22T01:06:12;5.60;99.90
13251;DHT22;6692;50.710;7.180;2023-12-22T01:08:13;5.60;99.90
13251;DHT22;6692;50.710;7.180;2023-12-22T01:10:13;5.70;99.90
13251;DHT22;6692;50.710;7.180;2023-12-22T01:12:14;5.70;99.90
13251;DHT22;6692;50.710;7.180;2023-12-22T01:14:15;5.70;99.90
13251;DHT22;6692;50.710;7.180;2023-12-22T01:16:16;5.70;99.90
13251;DHT22;6692;50.710;7.180;2023-12-22T01:18:16;5.70;99.90
13251;DHT22;6692;50.710;7.180;2023-12-22T01:20:17;5.80;99.90
13251;DHT22;6692;50.710;7.180;2023-12-22T01:22:18;5.80;99.90
13251;DHT22;6692;50.710;7.180;2023-12-22T01:24:19;5.80;99.90
13251;DHT22;6692;50.710;7.180;2023-12-22T01:26:20;5.80;99.90
13251;DHT22;6692;50.710;7.180;2023-12-22T01:28:20;5.90;99.90
13251;DHT22;6692;50.710;7.180;2023-12-22T01:30:22;5.90;99.90
13251;DHT22;6692;50.710;7.180;2023-12-22T01:32:23;5.90;99.90
13251;DHT22;6692;50.710;7.180;2023-12-22T01:34:23;5.90;99.90
13251;DHT22;6692;50.710;7.180;2023-12-22T01:36:24;6.00;99.90
13251;DHT22;6692;50.710;7.180;2023-12-22T01:38:25;6.00;99.90
13251;DHT22;6692;50.710;7.180;2023-12-22T01:40:26;6.00;99.90
13251;DHT22;6692;50.710;7.180;2023-12-22T01:42:27;6.00;99.90
13251;DHT22;6692;50.710;7.180;2023-12-22T01:44:27;6.00;99.90
13251;DHT22;6692;50.710;7.180;2023-12-22T01:46:28;6.00;99.90
13251;DHT22;6692;50.710;7.180;2023-12-22T01:48:29;6.10;99.90
13251;DHT22;6692;50.710;7.180;2023-12-22T01:50:30;6.00;99.90
13251;DHT22;6692;50.710;7.180;2023-12-22T01:52:31;6.10;99.90
13251;DHT22;6692;50.710;7.180;2023-12-22T01:54:34;6.10;99.90
13251;DHT22;6692;50.710;7.180;2023-12-22T01:56:35;6.10;99.90
13251;DHT22;6692;50.710;7.180;2023-12-22T01:58:37;6.10;99.90
13251;DHT22;6692;50.710;7.180;2023-12-22T02:00:38;6.10;99.90
13251;DHT22;6692;50.710;7.180;2023-12-22T02:02:38;6.10;99.90
13251;DHT22;6692;50.710;7.180;2023-12-22T02:04:39;6.10;99.90
13251;DHT22;6692;50.710;7.180;2023-12-22T02:06:40;6.10;99.90
13251;DHT22;6692;50.710;7.180;2023-12-22T02:08:41;6.10;99.90
13251;DHT22;6692;50.710;7.180;2023-12-22T02:10:42;6.20;99.90
13251;DHT22;6692;50.710;7.180;2023-12-22T02:12:44;6.20;99.90
13251;DHT22;6692;50.710;7.180;2023-12-22T02:14:44;6.20;99.90
13251;DHT22;6692;50.710;7.180;2023-12-22T02:16:46;6.20;99.90
13251;DHT22;6692;50.710;7.180;2023-12-22T02:18:47;6.20;99.90
13251;DHT22;6692;50.710;7.180;2023-12-22T02:20:47;6.20;99.90
13251;DHT22;6692;50.710;7.180;2023-12-22T02:22:52;6.20;99.90
13251;DHT22;6692;50.710;7.180;2023-12-22T02:24:54;6.20;99.90
13251;DHT22;6692;50.710;7.180;2023-12-22T02:26:54;6.20;99.90
13251;DHT22;6692;50.710;7.180;2023-12-22T02:28:55;6.20;99.90
13251;DHT22;6692;50.710;7.180;2023-12-22T02:30:57;6.20;99.90
13251;DHT22;6692;50.710;7.180;2023-12-22T02:32:58;6.20;99.90
13251;DHT22;6692;50.710;7.180;2023-12-22T02:34:57;6.30;99.90
13251;DHT22;6692;50.710;7.180;2023-12-22T02:36:58;6.30;99.90
13251;DHT22;6692;50.710;7.180;2023-12-22T02:38:59;6.30;99.90
13251;DHT22;6692;50.710;7.180;2023-12-22T02:41:00;6.30;99.90
13251;DHT22;6692;50.710;7.180;2023-12-22T02:43:01;6.30;99.90
13251;DHT22;6692;50.710;7.180;2023-12-22T02:45:01;6.30;99.90
13251;DHT22;6692;50.710;7.180;2023-12-22T02:47:03;6.30;99.90
13251;DHT22;6692;50.710;7.180;2023-12-22T02:49:04;6.30;99.90
13251;DHT22;6692;50.710;7.180;2023-12-22T02:51:05;6.30;99.90
13251;DHT22;6692;50.710;7.180;2023-12-22T02:53:06;6.30;99.90
13251;DHT22;6692;50.710;7.180;2023-12-22T02:55:07;6.30;99.90
13251;DHT22;6692;50.710;7.180;2023-12-22T02:57:08;6.30;99.90
13251;DHT22;6692;50.710;7.180;2023-12-22T02:59:09;6.30;99.90
13251;DHT22;6692;50.710;7.180;2023-12-22T03:01:09;6.30;99.90
13251;DHT22;6692;50.710;7.180;2023-12-22T03:03:11;6.30;99.90
13251;DHT22;6692;50.710;7.180;2023-12-22T03:05:15;6.30;99.90
13251;DHT22;6692;50.710;7.180;2023-12-22T03:07:16;6.30;99.90
13251;DHT22;6692;50.710;7.180;2023-12-22T03:09:16;6.30;99.90
13251;DHT22;6692;50.710;7.180;2023-12-22T03:11:17;6.30;99.90
13251;DHT22;6692;50.710;7.180;2023-12-22T03:13:18;6.30;99.90
13251;DHT22;6692;50.710;7.180;2023-12-22T03:15:19;6.40;99.90
13251;DHT22;6692;50.710;7.180;2023-12-22T03:17:19;6.40;99.90
13251;DHT22;6692;50.710;7.180;2023-12-22T03:19:20;6.40;99.90
13251;DHT22;6692;50.710;7.180;2023-12-22T03:21:21;6.50;99.90
13251;DHT22;6692;50.710;7.180;2023-12-22T03:23:21;6.50;99.90
13251;DHT22;6692;50.710;7.180;2023-12-22T03:25:22;6.60;99.90
13251;DHT22;6692;50.710;7.180;2023-12-22T03:27:23;6.60;99.90
13251;DHT22;6692;50.710;7.180;2023-12-22T03:29:24;6.70;99.90
13251;DHT22;6692;50.710;7.180;2023-12-22T03:31:25;6.70;99.90
13251;DHT22;6692;50.710;7.180;2023-12-22T03:33:26;6.70;99.90
13251;DHT22;6692;50.710;7.180;2023-12-22T03:35:27;6.80;99.90
13251;DHT22;6692;50.710;7.180;2023-12-22T03:37:27;6.80;99.90
13251;DHT22;6692;50.710;7.180;2023-12-22T03:39:28;6.80;99.90
13251;DHT22;6692;50.710;7.180;2023-12-22T03:41:30;7.00;99.90
13251;DHT22;6692;50.710;7.180;2023-12-22T03:43:30;6.90;99.90
13251;DHT22;6692;50.710;7.180;2023-12-22T03:45:31;7.00;99.90
13251;DHT22;6692;50.710;7.180;2023-12-22T03:47:32;7.00;99.90
13251;DHT22;6692;50.710;7.180;2023-12-22T03:49:32;7.00;99.90
13251;DHT22;6692;50.710;7.180;2023-12-22T03:51:33;7.00;99.90
13251;DHT22;6692;50.710;7.180;2023-12-22T03:53:34;7.10;99.90
13251;DHT22;6692;50.710;7.180;2023-12-22T03:55:34;7.10;99.90
13251;DHT22;6692;50.710;7.180;2023-12-22T03:57:35;7.10;99.90
13251;DHT22;6692;50.710;7.180;2023-12-22T03:59:37;7.10;99.90
13251;DHT22;6692;50.710;7.180;2023-12-22T04:01:37;7.10;99.90
13251;DHT22;6692;50.710;7.180;2023-12-22T04:03:38;7.20;99.90
13251;DHT22;6692;50.710;7.180;2023-12-22T04:05:39;7.20;99.90
13251;DHT22;6692;50.710;7.180;2023-12-22T04:07:41;7.20;99.90
13251;DHT22;6692;50.710;7.180;2023-12-22T04:09:42;7.20;99.90
13251;DHT22;6692;50.710;7.180;2023-12-22T04:11:42;7.10;99.90
13251;DHT22;6692;50.710;7.180;2023-12-22T04:13:43;7.10;99.90
13251;DHT22;6692;50.710;7.180;2023-12-22T04:15:44;7.10;99.90
13251;DHT22;6692;50.710;7.180;2023-12-22T04:17:45;7.10;99.90
13251;DHT22;6692;50.710;7.180;2023-12-22T04:19:45;7.10;99.90
13251;DHT22;6692;50.710;7.180;2023-12-22T04:21:47;7.00;99.90
13251;DHT22;6692;50.710;7.180;2023-12-22T04:23:47;7.00;99.90
13251;DHT22;6692;50.710;7.180;2023-12-22T04:25:49;7.00;99.90
13251;DHT22;6692;50.710;7.180;2023-12-22T04:27:50;7.00;99.90
13251;DHT22;6692;50.710;7.180;2023-12-22T04:29:50;7.00;99.90
13251;DHT22;6692;50.710;7.180;2023-12-22T04:31:52;6.90;99.90
13251;DHT22;6692;50.710;7.180;2023-12-22T04:33:53;6.90;99.90
13251;DHT22;6692;50.710;7.180;2023-12-22T04:35:53;6.90;99.90
13251;DHT22;6692;50.710;7.180;2023-12-22T04:37:54;6.90;99.90
13251;DHT22;6692;50.710;7.180;2023-12-22T04:39:55;6.90;99.90
13251;DHT22;6692;50.710;7.180;2023-12-22T04:41:55;6.90;99.90
13251;DHT22;6692;50.710;7.180;2023-12-22T04:43:56;6.90;99.90
13251;DHT22;6692;50.710;7.180;2023-12-22T04:45:57;6.90;99.90
13251;DHT22;6692;50.710;7.180;2023-12-22T04:47:58;6.80;99.90
13251;DHT22;6692;50.710;7.180;2023-12-22T04:49:58;6.80;99.90
13251;DHT22;6692;50.710;7.180;2023-12-22T04:51:59;6.80;99.90
13251;DHT22;6692;50.710;7.180;2023-12-22T04:54:00;6.80;99.90
13251;DHT22;6692;50.710;7.180;2023-12-22T04:56:01;6.80;99.90
13251;DHT22;6692;50.710;7.180;2023-12-22T04:58:01;6.80;99.90
13251;DHT22;6692;50.710;7.180;2023-12-22T05:00:03;6.80;99.90
13251;DHT22;6692;50.710;7.180;2023-12-22T05:02:04;6.90;99.90
13251;DHT22;6692;50.710;7.180;2023-12-22T05:04:04;6.90;99.90
13251;DHT22;6692;50.710;7.180;2023-12-22T05:06:05;6.90;99.90
13251;DHT22;6692;50.710;7.180;2023-12-22T05:08:06;6.90;99.90
13251;DHT22;6692;50.710;7.180;2023-12-22T05:10:07;6.90;99.90
13251;DHT22;6692;50.710;7.180;2023-12-22T05:12:09;7.00;99.90
13251;DHT22;6692;50.710;7.180;2023-12-22T05:14:09;7.00;99.90
13251;DHT22;6692;50.710;7.180;2023-12-22T05:16:10;7.00;99.90
13251;DHT22;6692;50.710;7.180;2023-12-22T05:18:12;7.20;99.90
13251;DHT22;6692;50.710;7.180;2023-12-22T05:20:12;7.10;99.90
13251;DHT22;6692;50.710;7.180;2023-12-22T05:22:14;7.30;99.90
13251;DHT22;6692;50.710;7.180;2023-12-22T05:24:15;7.30;99.90
13251;DHT22;6692;50.710;7.180;2023-12-22T05:26:16;7.40;99.90
13251;DHT22;6692;50.710;7.180;2023-12-22T05:28:16;7.50;99.90
13251;DHT22;6692;50.710;7.180;2023-12-22T05:30:17;7.50;99.90
13251;DHT22;6692;50.710;7.180;2023-12-22T05:32:18;7.60;99.90
13251;DHT22;6692;50.710;7.180;2023-12-22T05:34:19;7.70;99.90
13251;DHT22;6692;50.710;7.180;2023-12-22T05:36:20;7.70;99.90
13251;DHT22;6692;50.710;7.180;2023-12-22T05:38:20;7.80;99.90
13251;DHT22;6692;50.710;7.180;2023-12-22T05:40:21;7.80;99.90
13251;DHT22;6692;50.710;7.180;2023-12-22T05:42:22;7.90;99.90
13251;DHT22;6692;50.710;7.180;2023-12-22T05:44:23;7.90;99.90
13251;DHT22;6692;50.710;7.180;2023-12-22T05:46:25;7.90;99.90
13251;DHT22;6692;50.710;7.180;2023-12-22T05:48:26;8.00;99.90
13251;DHT22;6692;50.710;7.180;2023-12-22T05:50:26;8.00;99.90
13251;DHT22;6692;50.710;7.180;2023-12-22T05:52:27;8.00;99.90
13251;DHT22;6692;50.710;7.180;2023-12-22T05:54:29;8.10;99.90
13251;DHT22;6692;50.710;7.180;2023-12-22T05:56:29;8.10;99.90
13251;DHT22;6692;50.710;7.180;2023-12-22T05:58:31;8.10;99.90
13251;DHT22;6692;50.710;7.180;2023-12-22T06:00:32;8.10;99.90
13251;DHT22;6692;50.710;7.180;2023-12-22T06:02:33;8.10;99.90
13251;DHT22;6692;50.710;7.180;2023-12-22T06:04:34;8.10;99.90
13251;DHT22;6692;50.710;7.180;2023-12-22T06:06:36;8.10;99.90
13251;DHT22;6692;50.710;7.180;2023-12-22T06:08:37;8.30;99.90
13251;DHT22;6692;50.710;7.180;2023-12-22T06:10:38;8.30;99.90
13251;DHT22;6692;50.710;7.180;2023-12-22T06:12:39;8.30;99.90
13251;DHT22;6692;50.710;7.180;2023-12-22T06:14:39;8.30;99.90
13251;DHT22;6692;50.710;7.180;2023-12-22T06:16:40;8.30;99.90
13251;DHT22;6692;50.710;7.180;2023-12-22T06:18:41;8.30;99.90
13251;DHT22;6692;50.710;7.180;2023-12-22T06:20:42;8.40;99.90
13251;DHT22;6692;50.710;7.180;2023-12-22T06:22:42;8.40;99.90
13251;DHT22;6692;50.710;7.180;2023-12-22T06:24:43;8.40;99.90
13251;DHT22;6692;50.710;7.180;2023-12-22T06:26:45;8.50;99.90
13251;DHT22;6692;50.710;7.180;2023-12-22T06:28:46;8.50;99.90
13251;DHT22;6692;50.710;7.180;2023-12-22T06:30:47;8.50;99.90
13251;DHT22;6692;50.710;7.180;2023-12-22T06:32:48;8.50;99.90
13251;DHT22;6692;50.710;7.180;2023-12-22T06:34:49;8.60;99.90
13251;DHT22;6692;50.710;7.180;2023-12-22T06:36:50;8.60;99.90
13251;DHT22;6692;50.710;7.180;2023-12-22T06:38:51;8.60;99.90
13251;DHT22;6692;50.710;7.180;2023-12-22T06:40:51;8.70;99.90
13251;DHT22;6692;50.710;7.180;2023-12-22T06:42:52;8.70;99.90
13251;DHT22;6692;50.710;7.180;2023-12-22T06:44:53;8.70;99.90
13251;DHT22;6692;50.710;7.180;2023-12-22T06:46:54;8.70;99.90
13251;DHT22;6692;50.710;7.180;2023-12-22T06:48:56;8.70;99.90
13251;DHT22;6692;50.710;7.180;2023-12-22T06:50:56;8.70;99.90
13251;DHT22;6692;50.710;7.180;2023-12-22T06:52:57;8.70;99.90
13251;DHT22;6692;50.710;7.180;2023-12-22T06:54:58;8.70;99.90
13251;DHT22;6692;50.710;7.180;2023-12-22T06:56:59;8.70;99.90
13251;DHT22;6692;50.710;7.180;2023-12-22T06:59:00;8.70;99.90
13251;DHT22;6692;50.710;7.180;2023-12-22T07:01:02;8.70;99.90
13251;DHT22;6692;50.710;7.180;2023-12-22T07:03:03;8.70;99.90
13251;DHT22;6692;50.710;7.180;2023-12-22T07:07:36;8.70;99.90
13251;DHT22;6692;50.710;7.180;2023-12-22T07:09:36;8.70;99.90
13251;DHT22;6692;50.710;7.180;2023-12-22T07:11:38;8.70;99.90
13251;DHT22;6692;50.710;7.180;2023-12-22T07:13:39;8.60;99.90
13251;DHT22;6692;50.710;7.180;2023-12-22T07:15:40;8.50;99.90
13251;DHT22;6692;50.710;7.180;2023-12-22T07:17:41;8.40;99.90
13251;DHT22;6692;50.710;7.180;2023-12-22T07:19:42;8.30;99.90
13251;DHT22;6692;50.710;7.180;2023-12-22T07:21:42;8.20;99.90
13251;DHT22;6692;50.710;7.180;2023-12-22T07:23:43;8.00;99.90
13251;DHT22;6692;50.710;7.180;2023-12-22T07:25:44;7.90;99.90
13251;DHT22;6692;50.710;7.180;2023-12-22T07:27:45;7.80;99.90
13251;DHT22;6692;50.710;7.180;2023-12-22T07:29:46;7.80;99.90
13251;DHT22;6692;50.710;7.180;2023-12-22T07:31:47;7.70;99.90
13251;DHT22;6692;50.710;7.180;2023-12-22T07:33:48;7.70;99.90
13251;DHT22;6692;50.710;7.180;2023-12-22T07:35:49;7.70;99.90
13251;DHT22;6692;50.710;7.180;2023-12-22T07:37:50;7.70;99.90
13251;DHT22;6692;50.710;7.180;2023-12-22T07:39:51;7.70;99.90
13251;DHT22;6692;50.710;7.180;2023-12-22T07:41:51;7.70;99.90
13251;DHT22;6692;50.710;7.180;2023-12-22T07:43:52;7.70;99.90
13251;DHT22;6692;50.710;7.180;2023-12-22T07:45:54;7.70;99.90
13251;DHT22;6692;50.710;7.180;2023-12-22T07:47:54;7.70;99.90
13251;DHT22;6692;50.710;7.180;2023-12-22T07:49:55;7.70;99.90
13251;DHT22;6692;50.710;7.180;2023-12-22T07:51:56;7.70;99.90
13251;DHT22;6692;50.710;7.180;2023-12-22T07:53:57;7.70;99.90
13251;DHT22;6692;50.710;7.180;2023-12-22T07:55:57;7.60;99.90
13251;DHT22;6692;50.710;7.180;2023-12-22T07:57:59;7.50;99.90
13251;DHT22;6692;50.710;7.180;2023-12-22T08:00:00;7.50;99.90
13251;DHT22;6692;50.710;7.180;2023-12-22T08:02:01;7.50;99.90
13251;DHT22;6692;50.710;7.180;2023-12-22T08:04:01;7.40;99.90
13251;DHT22;6692;50.710;7.180;2023-12-22T08:06:03;7.40;99.90
13251;DHT22;6692;50.710;7.180;2023-12-22T08:08:04;7.40;99.90
13251;DHT22;6692;50.710;7.180;2023-12-22T08:10:05;7.50;99.90
13251;DHT22;6692;50.710;7.180;2023-12-22T08:12:07;7.50;99.90
13251;DHT22;6692;50.710;7.180;2023-12-22T08:14:08;7.50;99.90
13251;DHT22;6692;50.710;7.180;2023-12-22T08:16:08;7.50;99.90
13251;DHT22;6692;50.710;7.180;2023-12-22T08:18:09;7.50;99.90
13251;DHT22;6692;50.710;7.180;2023-12-22T08:20:10;7.50;99.90
13251;DHT22;6692;50.710;7.180;2023-12-22T08:22:11;7.60;99.90
13251;DHT22;6692;50.710;7.180;2023-12-22T08:24:12;7.60;99.90
13251;DHT22;6692;50.710;7.180;2023-12-22T08:26:13;7.60;99.90
13251;DHT22;6692;50.710;7.180;2023-12-22T08:28:14;7.60;99.90
13251;DHT22;6692;50.710;7.180;2023-12-22T08:30:15;7.60;99.90
13251;DHT22;6692;50.710;7.180;2023-12-22T08:32:16;7.70;99.90
13251;DHT22;6692;50.710;7.180;2023-12-22T08:34:17;7.70;99.90
13251;DHT22;6692;50.710;7.180;2023-12-22T08:36:17;7.80;99.90
13251;DHT22;6692;50.710;7.180;2023-12-22T08:38:18;7.80;99.90
13251;DHT22;6692;50.710;7.180;2023-12-22T08:40:19;7.90;99.90
13251;DHT22;6692;50.710;7.180;2023-12-22T08:42:20;7.90;99.90
13251;DHT22;6692;50.710;7.180;2023-12-22T08:44:21;7.90;99.90
13251;DHT22;6692;50.710;7.180;2023-12-22T08:46:21;8.00;99.90
13251;DHT22;6692;50.710;7.180;2023-12-22T08:48:22;8.00;99.90
13251;DHT22;6692;50.710;7.180;2023-12-22T08:50:23;8.00;99.90
13251;DHT22;6692;50.710;7.180;2023-12-22T08:52:24;8.10;99.90
13251;DHT22;6692;50.710;7.180;2023-12-22T08:54:25;8.10;99.90
13251;DHT22;6692;50.710;7.180;2023-12-22T08:56:26;8.20;99.90
13251;DHT22;6692;50.710;7.180;2023-12-22T08:58:28;8.20;99.90
13251;DHT22;6692;50.710;7.180;2023-12-22T09:00:28;8.20;99.90
13251;DHT22;6692;50.710;7.180;2023-12-22T09:02:29;8.20;99.90
13251;DHT22;6692;50.710;7.180;2023-12-22T09:04:30;8.30;99.90
13251;DHT22;6692;50.710;7.180;2023-12-22T09:06:31;8.30;99.90
13251;DHT22;6692;50.710;7.180;2023-12-22T09:08:31;8.30;99.90
13251;DHT22;6692;50.710;7.180;2023-12-22T09:10:32;8.40;99.90
13251;DHT22;6692;50.710;7.180;2023-12-22T09:12:33;8.40;99.90
13251;DHT22;6692;50.710;7.180;2023-12-22T09:14:34;8.40;99.90
13251;DHT22;6692;50.710;7.180;2023-12-22T09:16:35;8.50;99.90
13251;DHT22;6692;50.710;7.180;2023-12-22T09:18:35;8.50;99.90
13251;DHT22;6692;50.710;7.180;2023-12-22T09:20:36;8.50;99.90
13251;DHT22;6692;50.710;7.180;2023-12-22T09:22:37;8.50;99.90
13251;DHT22;6692;50.710;7.180;2023-12-22T09:24:38;8.60;99.90
13251;DHT22;6692;50.710;7.180;2023-12-22T09:26:38;8.60;99.90
13251;DHT22;6692;50.710;7.180;2023-12-22T09:28:40;8.60;99.90
13251;DHT22;6692;50.710;7.180;2023-12-22T09:30:40;8.70;99.90
13251;DHT22;6692;50.710;7.180;2023-12-22T09:32:41;8.70;99.90
13251;DHT22;6692;50.710;7.180;2023-12-22T09:34:41;8.70;99.90
13251;DHT22;6692;50.710;7.180;2023-12-22T09:36:42;8.70;99.90
13251;DHT22;6692;50.710;7.180;2023-12-22T09:38:43;8.70;99.90
13251;DHT22;6692;50.710;7.180;2023-12-22T09:40:44;8.80;99.90
13251;DHT22;6692;50.710;7.180;2023-12-22T09:42:44;8.80;99.90
13251;DHT22;6692;50.710;7.180;2023-12-22T09:44:45;8.90;99.90
13251;DHT22;6692;50.710;7.180;2023-12-22T09:46:48;8.90;99.90
13251;DHT22;6692;50.710;7.180;2023-12-22T09:48:49;8.90;99.90
13251;DHT22;6692;50.710;7.180;2023-12-22T09:50:49;8.90;99.90
13251;DHT22;6692;50.710;7.180;2023-12-22T09:52:50;9.00;99.90
13251;DHT22;6692;50.710;7.180;2023-12-22T09:54:50;9.00;99.90
13251;DHT22;6692;50.710;7.180;2023-12-22T09:59:30;9.10;99.90
13251;DHT22;6692;50.710;7.180;2023-12-22T10:01:30;9.10;99.90
13251;DHT22;6692;50.710;7.180;2023-12-22T10:03:33;9.10;99.90
13251;DHT22;6692;50.710;7.180;2023-12-22T10:10:49;9.20;99.90
13251;DHT22;6692;50.710;7.180;2023-12-22T10:12:51;9.20;99.90
13251;DHT22;6692;50.710;7.180;2023-12-22T10:17:31;9.20;99.90
13251;DHT22;6692;50.710;7.180;2023-12-22T10:19:33;9.30;99.90
13251;DHT22;6692;50.710;7.180;2023-12-22T10:21:34;9.30;99.90
13251;DHT22;6692;50.710;7.180;2023-12-22T10:23:34;9.30;99.90
13251;DHT22;6692;50.710;7.180;2023-12-22T10:25:35;9.30;99.90
13251;DHT22;6692;50.710;7.180;2023-12-22T10:27:37;9.30;99.90
13251;DHT22;6692;50.710;7.180;2023-12-22T10:29:37;9.30;99.90
13251;DHT22;6692;50.710;7.180;2023-12-22T10:31:39;9.30;99.90
13251;DHT22;6692;50.710;7.180;2023-12-22T10:33:40;9.30;99.90
13251;DHT22;6692;50.710;7.180;2023-12-22T10:35:41;9.30;99.90
13251;DHT22;6692;50.710;7.180;2023-12-22T10:37:43;9.30;99.90
13251;DHT22;6692;50.710;7.180;2023-12-22T10:39:43;9.30;99.90
13251;DHT22;6692;50.710;7.180;2023-12-22T10:41:44;9.40;99.90
13251;DHT22;6692;50.710;7.180;2023-12-22T10:43:45;9.30;99.90
13251;DHT22;6692;50.710;7.180;2023-12-22T10:45:46;9.30;99.90
13251;DHT22;6692;50.710;7.180;2023-12-22T10:47:48;9.40;99.90
13251;DHT22;6692;50.710;7.180;2023-12-22T10:49:49;9.40;99.90
13251;DHT22;6692;50.710;7.180;2023-12-22T10:51:50;9.40;99.90
13251;DHT22;6692;50.710;7.180;2023-12-22T10:53:50;9.30;99.90
13251;DHT22;6692;50.710;7.180;2023-12-22T10:55:52;9.30;99.90
13251;DHT22;6692;50.710;7.180;2023-12-22T10:57:53;9.30;99.90
13251;DHT22;6692;50.710;7.180;2023-12-22T10:59:53;9.20;99.90
13251;DHT22;6692;50.710;7.180;2023-12-22T11:01:54;9.20;99.90
13251;DHT22;6692;50.710;7.180;2023-12-22T11:08:46;9.10;99.90
13251;DHT22;6692;50.710;7.180;2023-12-22T11:10:48;9.10;99.90
13251;DHT22;6692;50.710;7.180;2023-12-22T11:12:48;9.10;99.90
13251;DHT22;6692;50.710;7.180;2023-12-22T11:14:49;9.10;99.90
13251;DHT22;6692;50.710;7.180;2023-12-22T11:16:51;9.00;99.90
13251;DHT22;6692;50.710;7.180;2023-12-22T11:18:53;9.00;99.90
13251;DHT22;6692;50.710;7.180;2023-12-22T11:20:52;9.10;99.90
13251;DHT22;6692;50.710;7.180;2023-12-22T11:22:53;9.10;99.90
13251;DHT22;6692;50.710;7.180;2023-12-22T11:24:54;9.10;99.90
13251;DHT22;6692;50.710;7.180;2023-12-22T11:26:55;9.10;99.90
13251;DHT22;6692;50.710;7.180;2023-12-22T11:28:55;9.10;99.90
13251;DHT22;6692;50.710;7.180;2023-12-22T11:30:57;9.20;99.90
13251;DHT22;6692;50.710;7.180;2023-12-22T11:32:58;9.20;99.90
13251;DHT22;6692;50.710;7.180;2023-12-22T11:34:58;9.20;99.90
13251;DHT22;6692;50.710;7.180;2023-12-22T11:36:59;9.30;99.90
13251;DHT22;6692;50.710;7.180;2023-12-22T11:39:01;9.30;99.90
13251;DHT22;6692;50.710;7.180;2023-12-22T11:41:02;9.30;99.90
13251;DHT22;6692;50.710;7.180;2023-12-22T11:43:03;9.40;99.90
13251;DHT22;6692;50.710;7.180;2023-12-22T11:45:04;9.40;99.90
13251;DHT22;6692;50.710;7.180;2023-12-22T11:47:06;9.40;99.90
13251;DHT22;6692;50.710;7.180;2023-12-22T11:49:07;9.40;99.90
13251;DHT22;6692;50.710;7.180;2023-12-22T11:51:13;9.50;99.90
13251;DHT22;6692;50.710;7.180;2023-12-22T11:53:25;9.50;99.90
13251;DHT22;6692;50.710;7.180;2023-12-22T11:57:39;9.60;99.90
13251;DHT22;6692;50.710;7.180;2023-12-22T11:59:39;9.60;99.90
13251;DHT22;6692;50.710;7.180;2023-12-22T12:01:40;9.60;99.90
13251;DHT22;6692;50.710;7.180;2023-12-22T12:03:47;9.70;99.90
13251;DHT22;6692;50.710;7.180;2023-12-22T12:05:42;9.70;99.90
13251;DHT22;6692;50.710;7.180;2023-12-22T12:07:44;9.70;99.90
13251;DHT22;6692;50.710;7.180;2023-12-22T12:09:45;9.80;99.90
13251;DHT22;6692;50.710;7.180;2023-12-22T12:14:22;9.80;99.90
13251;DHT22;6692;50.710;7.180;2023-12-22T12:16:22;9.90;99.90
13251;DHT22;6692;50.710;7.180;2023-12-22T12:18:22;10.00;99.90
13251;DHT22;6692;50.710;7.180;2023-12-22T12:20:23;10.00;99.90
13251;DHT22;6692;50.710;7.180;2023-12-22T12:22:24;10.10;99.90
13251;DHT22;6692;50.710;7.180;2023-12-22T12:24:25;10.10;99.90
13251;DHT22;6692;50.710;7.180;2023-12-22T12:26:26;10.20;99.90
13251;DHT22;6692;50.710;7.180;2023-12-22T12:28:28;10.20;99.90
13251;DHT22;6692;50.710;7.180;2023-12-22T12:30:27;10.30;99.90
13251;DHT22;6692;50.710;7.180;2023-12-22T12:32:28;10.30;99.90
13251;DHT22;6692;50.710;7.180;2023-12-22T12:34:29;10.30;99.90
13251;DHT22;6692;50.710;7.180;2023-12-22T12:36:30;10.40;99.90
13251;DHT22;6692;50.710;7.180;2023-12-22T12:38:45;10.40;99.90
13251;DHT22;6692;50.710;7.180;2023-12-22T12:40:48;10.40;99.90
13251;DHT22;6692;50.710;7.180;2023-12-22T12:42:49;10.40;99.90
13251;DHT22;6692;50.710;7.180;2023-12-22T12:44:49;10.40;99.90
13251;DHT22;6692;50.710;7.180;2023-12-22T12:46:50;10.50;99.90
13251;DHT22;6692;50.710;7.180;2023-12-22T12:49:02;10.50;99.90
13251;DHT22;6692;50.710;7.180;2023-12-22T12:50:52;10.50;99.90
13251;DHT22;6692;50.710;7.180;2023-12-22T12:52:53;10.50;99.90
13251;DHT22;6692;50.710;7.180;2023-12-22T12:54:54;10.50;99.90
13251;DHT22;6692;50.710;7.180;2023-12-22T12:56:55;10.50;99.90
13251;DHT22;6692;50.710;7.180;2023-12-22T12:58:55;10.50;99.90
13251;DHT22;6692;50.710;7.180;2023-12-22T13:01:04;10.60;99.90
13251;DHT22;6692;50.710;7.180;2023-12-22T13:03:04;10.50;99.90
13251;DHT22;6692;50.710;7.180;2023-12-22T13:05:05;10.60;99.90
13251;DHT22;6692;50.710;7.180;2023-12-22T13:07:06;10.60;99.90
13251;DHT22;6692;50.710;7.180;2023-12-22T13:09:07;10.50;99.90
13251;DHT22;6692;50.710;7.180;2023-12-22T13:11:09;10.60;99.90
13251;DHT22;6692;50.710;7.180;2023-12-22T13:13:10;10.50;99.90
13251;DHT22;6692;50.710;7.180;2023-12-22T13:15:10;10.60;99.90
13251;DHT22;6692;50.710;7.180;2023-12-22T13:17:11;10.50;99.90
13251;DHT22;6692;50.710;7.180;2023-12-22T13:19:12;10.50;99.90
13251;DHT22;6692;50.710;7.180;2023-12-22T13:21:13;10.40;99.90
13251;DHT22;6692;50.710;7.180;2023-12-22T13:23:16;10.30;99.90
13251;DHT22;6692;50.710;7.180;2023-12-22T13:25:14;10.10;99.90
13251;DHT22;6692;50.710;7.180;2023-12-22T13:27:15;10.00;99.90
13251;DHT22;6692;50.710;7.180;2023-12-22T13:29:16;10.00;99.90
13251;DHT22;6692;50.710;7.180;2023-12-22T13:31:17;9.80;99.90